sensor_id;sensor_type;location;lat;lon;timestamp;P1;durP1;ratioP1;P2;durP2;ratioP2
9294;SDS011;4686;44.496;11.324;2023-05-17T00:00:56;14.63;;;11.83;;
9294;SDS011;4686;44.496;11.324;2023-05-17T00:03:27;7.63;;;7.00;;
9294;SDS011;4686;44.496;11.324;2023-05-17T00:05:56;7.07;;;6.47;;
9294;SDS011;4686;44.496;11.324;2023-05-17T00:08:24;7.27;;;6.70;;
9294;SDS011;4686;44.496;11.324;2023-05-17T00:10:53;7.70;;;7.00;;
9294;SDS011;4686;44.496;11.324;2023-05-17T00:13:21;8.03;;;7.23;;
9294;SDS011;4686;44.496;11.324;2023-05-17T00:15:51;9.33;;;8.50;;
9294;SDS011;4686;44.496;11.324;2023-05-17T00:18:18;10.77;;;9.67;;
9294;SDS011;4686;44.496;11.324;2023-05-17T00:20:46;11.47;;;10.47;;
9294;SDS011;4686;44.496;11.324;2023-05-17T00:23:16;13.30;;;12.10;;
9294;SDS011;4686;44.496;11.324;2023-05-17T00:25:43;14.33;;;12.93;;
9294;SDS011;4686;44.496;11.324;2023-05-17T00:28:11;14.20;;;12.87;;
9294;SDS011;4686;44.496;11.324;2023-05-17T00:30:38;13.97;;;12.57;;
9294;SDS011;4686;44.496;11.324;2023-05-17T00:33:05;17.20;;;15.40;;
9294;SDS011;4686;44.496;11.324;2023-05-17T00:35:33;17.90;;;13.63;;
9294;SDS011;4686;44.496;11.324;2023-05-17T00:38:01;21.53;;;15.03;;
9294;SDS011;4686;44.496;11.324;2023-05-17T00:40:28;16.47;;;14.73;;
9294;SDS011;4686;44.496;11.324;2023-05-17T00:42:56;16.57;;;14.87;;
9294;SDS011;4686;44.496;11.324;2023-05-17T00:45:23;16.20;;;14.63;;
9294;SDS011;4686;44.496;11.324;2023-05-17T00:47:51;17.83;;;16.00;;
9294;SDS011;4686;44.496;11.324;2023-05-17T00:50:18;16.53;;;14.60;;
9294;SDS011;4686;44.496;11.324;2023-05-17T00:52:45;16.80;;;15.10;;
9294;SDS011;4686;44.496;11.324;2023-05-17T00:55:14;16.60;;;14.90;;
9294;SDS011;4686;44.496;11.324;2023-05-17T00:57:43;15.80;;;14.20;;
9294;SDS011;4686;44.496;11.324;2023-05-17T01:00:11;16.40;;;14.47;;
9294;SDS011;4686;44.496;11.324;2023-05-17T01:02:39;14.30;;;12.70;;
9294;SDS011;4686;44.496;11.324;2023-05-17T01:05:08;14.43;;;12.97;;
9294;SDS011;4686;44.496;11.324;2023-05-17T01:07:36;13.70;;;12.40;;
9294;SDS011;4686;44.496;11.324;2023-05-17T01:10:03;14.37;;;12.87;;
9294;SDS011;4686;44.496;11.324;2023-05-17T01:12:41;10.20;;;9.30;;
9294;SDS011;4686;44.496;11.324;2023-05-17T01:15:13;10.37;;;9.40;;
9294;SDS011;4686;44.496;11.324;2023-05-17T01:17:42;9.17;;;8.30;;
9294;SDS011;4686;44.496;11.324;2023-05-17T01:20:13;9.00;;;8.30;;
9294;SDS011;4686;44.496;11.324;2023-05-17T01:22:44;8.10;;;7.30;;
9294;SDS011;4686;44.496;11.324;2023-05-17T01:25:27;7.90;;;7.20;;
9294;SDS011;4686;44.496;11.324;2023-05-17T01:27:57;8.83;;;8.03;;
9294;SDS011;4686;44.496;11.324;2023-05-17T01:30:26;7.90;;;7.20;;
9294;SDS011;4686;44.496;11.324;2023-05-17T01:32:55;8.20;;;7.40;;
9294;SDS011;4686;44.496;11.324;2023-05-17T01:35:23;8.27;;;7.50;;
9294;SDS011;4686;44.496;11.324;2023-05-17T01:37:50;8.77;;;7.87;;
9294;SDS011;4686;44.496;11.324;2023-05-17T01:40:18;10.03;;;7.30;;
9294;SDS011;4686;44.496;11.324;2023-05-17T01:42:47;11.50;;;8.40;;
9294;SDS011;4686;44.496;11.324;2023-05-17T01:45:17;8.30;;;7.70;;
9294;SDS011;4686;44.496;11.324;2023-05-17T01:47:49;9.20;;;8.30;;
9294;SDS011;4686;44.496;11.324;2023-05-17T01:50:21;7.80;;;7.10;;
9294;SDS011;4686;44.496;11.324;2023-05-17T01:52:50;7.40;;;6.57;;
9294;SDS011;4686;44.496;11.324;2023-05-17T01:55:21;8.43;;;7.70;;
9294;SDS011;4686;44.496;11.324;2023-05-17T01:57:51;9.20;;;7.37;;
9294;SDS011;4686;44.496;11.324;2023-05-17T02:00:20;10.30;;;7.57;;
9294;SDS011;4686;44.496;11.324;2023-05-17T02:02:48;9.17;;;8.27;;
9294;SDS011;4686;44.496;11.324;2023-05-17T02:05:15;10.83;;;8.87;;
9294;SDS011;4686;44.496;11.324;2023-05-17T02:07:42;13.27;;;8.73;;
9294;SDS011;4686;44.496;11.324;2023-05-17T02:10:10;9.40;;;7.53;;
9294;SDS011;4686;44.496;11.324;2023-05-17T02:12:37;8.50;;;7.60;;
9294;SDS011;4686;44.496;11.324;2023-05-17T02:15:04;8.50;;;7.70;;
9294;SDS011;4686;44.496;11.324;2023-05-17T02:17:36;11.20;;;7.90;;
9294;SDS011;4686;44.496;11.324;2023-05-17T02:20:05;8.60;;;7.70;;
9294;SDS011;4686;44.496;11.324;2023-05-17T02:22:36;6.93;;;6.33;;
9294;SDS011;4686;44.496;11.324;2023-05-17T02:25:03;12.00;;;6.63;;
9294;SDS011;4686;44.496;11.324;2023-05-17T02:27:31;8.60;;;6.10;;
9294;SDS011;4686;44.496;11.324;2023-05-17T02:29:58;9.37;;;6.63;;
9294;SDS011;4686;44.496;11.324;2023-05-17T02:32:26;7.67;;;6.87;;
9294;SDS011;4686;44.496;11.324;2023-05-17T02:34:54;10.87;;;7.07;;
9294;SDS011;4686;44.496;11.324;2023-05-17T02:37:22;11.33;;;7.40;;
9294;SDS011;4686;44.496;11.324;2023-05-17T02:39:49;7.87;;;7.07;;
9294;SDS011;4686;44.496;11.324;2023-05-17T02:42:16;7.57;;;6.77;;
9294;SDS011;4686;44.496;11.324;2023-05-17T02:44:43;9.93;;;6.93;;
9294;SDS011;4686;44.496;11.324;2023-05-17T02:47:12;7.40;;;6.63;;
9294;SDS011;4686;44.496;11.324;2023-05-17T02:49:39;9.00;;;6.80;;
9294;SDS011;4686;44.496;11.324;2023-05-17T02:52:08;8.33;;;6.70;;
9294;SDS011;4686;44.496;11.324;2023-05-17T02:54:35;7.60;;;6.27;;
9294;SDS011;4686;44.496;11.324;2023-05-17T02:57:03;11.77;;;6.67;;
9294;SDS011;4686;44.496;11.324;2023-05-17T02:59:30;7.30;;;6.40;;
9294;SDS011;4686;44.496;11.324;2023-05-17T03:01:58;7.10;;;6.40;;
9294;SDS011;4686;44.496;11.324;2023-05-17T03:04:25;7.23;;;6.47;;
9294;SDS011;4686;44.496;11.324;2023-05-17T03:06:52;6.90;;;5.93;;
9294;SDS011;4686;44.496;11.324;2023-05-17T03:09:21;10.93;;;6.50;;
9294;SDS011;4686;44.496;11.324;2023-05-17T03:11:53;13.20;;;7.67;;
9294;SDS011;4686;44.496;11.324;2023-05-17T03:14:21;7.93;;;6.00;;
9294;SDS011;4686;44.496;11.324;2023-05-17T03:16:48;8.57;;;6.63;;
9294;SDS011;4686;44.496;11.324;2023-05-17T03:19:15;7.07;;;6.47;;
9294;SDS011;4686;44.496;11.324;2023-05-17T03:21:42;7.70;;;6.60;;
9294;SDS011;4686;44.496;11.324;2023-05-17T03:24:09;8.13;;;7.27;;
9294;SDS011;4686;44.496;11.324;2023-05-17T03:26:38;8.23;;;7.43;;
9294;SDS011;4686;44.496;11.324;2023-05-17T03:29:05;8.47;;;6.90;;
9294;SDS011;4686;44.496;11.324;2023-05-17T03:31:32;7.97;;;7.20;;
9294;SDS011;4686;44.496;11.324;2023-05-17T03:33:59;7.00;;;6.40;;
9294;SDS011;4686;44.496;11.324;2023-05-17T03:36:26;7.70;;;6.90;;
9294;SDS011;4686;44.496;11.324;2023-05-17T03:38:54;10.40;;;7.53;;
9294;SDS011;4686;44.496;11.324;2023-05-17T03:41:21;8.43;;;7.30;;
9294;SDS011;4686;44.496;11.324;2023-05-17T03:43:50;8.10;;;7.30;;
9294;SDS011;4686;44.496;11.324;2023-05-17T03:46:17;9.10;;;7.47;;
9294;SDS011;4686;44.496;11.324;2023-05-17T03:48:44;13.63;;;7.30;;
9294;SDS011;4686;44.496;11.324;2023-05-17T03:51:11;10.73;;;7.70;;
9294;SDS011;4686;44.496;11.324;2023-05-17T03:53:38;12.83;;;8.30;;
9294;SDS011;4686;44.496;11.324;2023-05-17T03:56:07;9.10;;;8.20;;
9294;SDS011;4686;44.496;11.324;2023-05-17T03:58:34;11.97;;;7.63;;
9294;SDS011;4686;44.496;11.324;2023-05-17T04:01:03;8.93;;;7.40;;
9294;SDS011;4686;44.496;11.324;2023-05-17T04:03:30;8.67;;;7.77;;
9294;SDS011;4686;44.496;11.324;2023-05-17T04:06:00;8.40;;;7.50;;
9294;SDS011;4686;44.496;11.324;2023-05-17T04:08:27;9.40;;;8.13;;
9294;SDS011;4686;44.496;11.324;2023-05-17T04:10:54;8.87;;;8.00;;
9294;SDS011;4686;44.496;11.324;2023-05-17T04:13:22;10.70;;;7.90;;
9294;SDS011;4686;44.496;11.324;2023-05-17T04:15:49;10.90;;;7.50;;
9294;SDS011;4686;44.496;11.324;2023-05-17T04:18:17;7.97;;;7.13;;
9294;SDS011;4686;44.496;11.324;2023-05-17T04:20:45;11.63;;;9.17;;
9294;SDS011;4686;44.496;11.324;2023-05-17T04:23:12;14.40;;;8.67;;
9294;SDS011;4686;44.496;11.324;2023-05-17T04:25:39;13.30;;;8.47;;
9294;SDS011;4686;44.496;11.324;2023-05-17T04:28:06;9.83;;;8.07;;
9294;SDS011;4686;44.496;11.324;2023-05-17T04:30:34;11.33;;;9.00;;
9294;SDS011;4686;44.496;11.324;2023-05-17T04:33:01;11.67;;;9.97;;
9294;SDS011;4686;44.496;11.324;2023-05-17T04:35:30;11.30;;;9.90;;
9294;SDS011;4686;44.496;11.324;2023-05-17T04:37:57;16.43;;;10.27;;
9294;SDS011;4686;44.496;11.324;2023-05-17T04:40:24;13.53;;;10.37;;
9294;SDS011;4686;44.496;11.324;2023-05-17T04:42:51;20.30;;;11.10;;
9294;SDS011;4686;44.496;11.324;2023-05-17T04:45:19;13.23;;;11.07;;
9294;SDS011;4686;44.496;11.324;2023-05-17T04:47:46;17.33;;;9.33;;
9294;SDS011;4686;44.496;11.324;2023-05-17T04:50:15;12.70;;;8.60;;
9294;SDS011;4686;44.496;11.324;2023-05-17T04:52:44;10.83;;;7.90;;
9294;SDS011;4686;44.496;11.324;2023-05-17T04:55:11;7.67;;;6.97;;
9294;SDS011;4686;44.496;11.324;2023-05-17T04:57:39;9.00;;;8.27;;
9294;SDS011;4686;44.496;11.324;2023-05-17T05:00:07;10.53;;;8.07;;
9294;SDS011;4686;44.496;11.324;2023-05-17T05:02:34;8.37;;;6.57;;
9294;SDS011;4686;44.496;11.324;2023-05-17T05:05:02;8.45;;;6.30;;
9294;SDS011;4686;44.496;11.324;2023-05-17T05:07:30;8.90;;;7.70;;
9294;SDS011;4686;44.496;11.324;2023-05-17T05:09:58;9.77;;;7.37;;
9294;SDS011;4686;44.496;11.324;2023-05-17T05:12:26;6.78;;;5.35;;
9294;SDS011;4686;44.496;11.324;2023-05-17T05:14:53;6.13;;;5.63;;
9294;SDS011;4686;44.496;11.324;2023-05-17T05:17:20;7.10;;;6.43;;
9294;SDS011;4686;44.496;11.324;2023-05-17T05:19:47;6.50;;;5.90;;
9294;SDS011;4686;44.496;11.324;2023-05-17T05:22:14;5.60;;;5.10;;
9294;SDS011;4686;44.496;11.324;2023-05-17T05:24:42;4.60;;;4.30;;
9294;SDS011;4686;44.496;11.324;2023-05-17T05:27:10;5.20;;;4.80;;
9294;SDS011;4686;44.496;11.324;2023-05-17T05:29:39;6.67;;;3.93;;
9294;SDS011;4686;44.496;11.324;2023-05-17T05:32:07;3.70;;;3.40;;
9294;SDS011;4686;44.496;11.324;2023-05-17T05:34:34;3.60;;;3.30;;
9294;SDS011;4686;44.496;11.324;2023-05-17T05:37:01;4.43;;;4.13;;
9294;SDS011;4686;44.496;11.324;2023-05-17T05:39:28;4.20;;;3.90;;
9294;SDS011;4686;44.496;11.324;2023-05-17T05:41:56;4.87;;;4.47;;
9294;SDS011;4686;44.496;11.324;2023-05-17T05:44:24;4.00;;;3.73;;
9294;SDS011;4686;44.496;11.324;2023-05-17T05:46:52;4.43;;;4.13;;
9294;SDS011;4686;44.496;11.324;2023-05-17T05:49:19;4.13;;;3.93;;
9294;SDS011;4686;44.496;11.324;2023-05-17T05:51:46;5.00;;;4.60;;
9294;SDS011;4686;44.496;11.324;2023-05-17T05:54:14;5.00;;;4.60;;
9294;SDS011;4686;44.496;11.324;2023-05-17T05:56:41;5.43;;;3.20;;
9294;SDS011;4686;44.496;11.324;2023-05-17T05:59:08;3.90;;;3.40;;
9294;SDS011;4686;44.496;11.324;2023-05-17T06:01:37;3.77;;;3.50;;
9294;SDS011;4686;44.496;11.324;2023-05-17T06:04:05;3.90;;;3.10;;
9294;SDS011;4686;44.496;11.324;2023-05-17T06:06:32;5.33;;;4.90;;
9294;SDS011;4686;44.496;11.324;2023-05-17T06:08:59;4.00;;;3.70;;
9294;SDS011;4686;44.496;11.324;2023-05-17T06:11:27;4.10;;;3.63;;
9294;SDS011;4686;44.496;11.324;2023-05-17T06:13:54;3.60;;;3.30;;
9294;SDS011;4686;44.496;11.324;2023-05-17T06:16:21;4.40;;;4.10;;
9294;SDS011;4686;44.496;11.324;2023-05-17T06:18:50;3.67;;;3.47;;
9294;SDS011;4686;44.496;11.324;2023-05-17T06:21:17;4.53;;;3.50;;
9294;SDS011;4686;44.496;11.324;2023-05-17T06:23:44;4.37;;;3.80;;
9294;SDS011;4686;44.496;11.324;2023-05-17T06:26:11;9.57;;;8.70;;
9294;SDS011;4686;44.496;11.324;2023-05-17T06:28:39;3.90;;;3.63;;
9294;SDS011;4686;44.496;11.324;2023-05-17T06:31:06;3.63;;;3.40;;
9294;SDS011;4686;44.496;11.324;2023-05-17T06:33:34;5.70;;;5.20;;
9294;SDS011;4686;44.496;11.324;2023-05-17T06:36:02;3.77;;;3.47;;
9294;SDS011;4686;44.496;11.324;2023-05-17T06:38:30;3.60;;;3.30;;
9294;SDS011;4686;44.496;11.324;2023-05-17T06:40:57;6.10;;;5.00;;
9294;SDS011;4686;44.496;11.324;2023-05-17T06:43:24;6.77;;;3.20;;
9294;SDS011;4686;44.496;11.324;2023-05-17T06:45:52;2.60;;;2.50;;
9294;SDS011;4686;44.496;11.324;2023-05-17T06:48:19;3.13;;;2.93;;
9294;SDS011;4686;44.496;11.324;2023-05-17T06:50:46;5.07;;;4.33;;
9294;SDS011;4686;44.496;11.324;2023-05-17T06:53:15;3.37;;;3.00;;
9294;SDS011;4686;44.496;11.324;2023-05-17T06:55:42;3.80;;;3.50;;
9294;SDS011;4686;44.496;11.324;2023-05-17T06:58:09;4.43;;;3.90;;
9294;SDS011;4686;44.496;11.324;2023-05-17T07:00:37;4.20;;;3.90;;
9294;SDS011;4686;44.496;11.324;2023-05-17T07:03:04;3.70;;;3.53;;
9294;SDS011;4686;44.496;11.324;2023-05-17T07:05:31;5.77;;;3.23;;
9294;SDS011;4686;44.496;11.324;2023-05-17T07:07:59;3.53;;;3.30;;
9294;SDS011;4686;44.496;11.324;2023-05-17T07:10:27;5.13;;;4.73;;
9294;SDS011;4686;44.496;11.324;2023-05-17T07:12:55;4.93;;;4.43;;
9294;SDS011;4686;44.496;11.324;2023-05-17T07:15:22;4.63;;;4.20;;
9294;SDS011;4686;44.496;11.324;2023-05-17T07:17:49;5.50;;;3.77;;
9294;SDS011;4686;44.496;11.324;2023-05-17T07:20:16;4.27;;;3.90;;
9294;SDS011;4686;44.496;11.324;2023-05-17T07:22:43;4.23;;;3.93;;
9294;SDS011;4686;44.496;11.324;2023-05-17T07:25:12;4.33;;;3.93;;
9294;SDS011;4686;44.496;11.324;2023-05-17T07:27:43;5.10;;;4.60;;
9294;SDS011;4686;44.496;11.324;2023-05-17T07:30:11;4.17;;;3.90;;
9294;SDS011;4686;44.496;11.324;2023-05-17T07:32:38;3.90;;;3.60;;
9294;SDS011;4686;44.496;11.324;2023-05-17T07:35:05;4.40;;;4.10;;
9294;SDS011;4686;44.496;11.324;2023-05-17T07:37:32;8.90;;;5.47;;
9294;SDS011;4686;44.496;11.324;2023-05-17T07:40:00;4.87;;;3.90;;
9294;SDS011;4686;44.496;11.324;2023-05-17T07:42:29;3.83;;;3.63;;
9294;SDS011;4686;44.496;11.324;2023-05-17T07:44:57;4.60;;;4.30;;
9294;SDS011;4686;44.496;11.324;2023-05-17T07:47:25;4.37;;;4.07;;
9294;SDS011;4686;44.496;11.324;2023-05-17T07:49:52;5.23;;;4.83;;
9294;SDS011;4686;44.496;11.324;2023-05-17T07:52:19;12.60;;;4.73;;
9294;SDS011;4686;44.496;11.324;2023-05-17T07:54:47;5.93;;;5.33;;
9294;SDS011;4686;44.496;11.324;2023-05-17T07:57:14;8.60;;;7.23;;
9294;SDS011;4686;44.496;11.324;2023-05-17T07:59:41;6.73;;;6.13;;
9294;SDS011;4686;44.496;11.324;2023-05-17T08:02:09;12.30;;;9.67;;
9294;SDS011;4686;44.496;11.324;2023-05-17T08:04:37;11.47;;;9.80;;
9294;SDS011;4686;44.496;11.324;2023-05-17T08:07:05;11.47;;;9.27;;
9294;SDS011;4686;44.496;11.324;2023-05-17T08:09:33;11.90;;;9.50;;
9294;SDS011;4686;44.496;11.324;2023-05-17T08:12:00;5.70;;;5.30;;
9294;SDS011;4686;44.496;11.324;2023-05-17T08:14:27;4.97;;;4.33;;
9294;SDS011;4686;44.496;11.324;2023-05-17T08:16:54;4.60;;;4.30;;
9294;SDS011;4686;44.496;11.324;2023-05-17T08:19:23;7.23;;;5.10;;
9294;SDS011;4686;44.496;11.324;2023-05-17T08:21:50;5.57;;;5.00;;
9294;SDS011;4686;44.496;11.324;2023-05-17T08:24:17;5.80;;;5.37;;
9294;SDS011;4686;44.496;11.324;2023-05-17T08:26:44;6.67;;;5.97;;
9294;SDS011;4686;44.496;11.324;2023-05-17T08:29:12;7.17;;;6.47;;
9294;SDS011;4686;44.496;11.324;2023-05-17T08:31:39;7.03;;;6.43;;
9294;SDS011;4686;44.496;11.324;2023-05-17T08:34:07;6.97;;;6.40;;
9294;SDS011;4686;44.496;11.324;2023-05-17T08:36:36;6.83;;;6.23;;
9294;SDS011;4686;44.496;11.324;2023-05-17T08:39:04;7.20;;;6.60;;
9294;SDS011;4686;44.496;11.324;2023-05-17T08:41:32;6.50;;;6.00;;
9294;SDS011;4686;44.496;11.324;2023-05-17T08:44:00;7.20;;;6.67;;
9294;SDS011;4686;44.496;11.324;2023-05-17T08:46:28;7.40;;;6.80;;
9294;SDS011;4686;44.496;11.324;2023-05-17T08:48:56;8.10;;;7.40;;
9294;SDS011;4686;44.496;11.324;2023-05-17T08:51:24;7.80;;;7.20;;
9294;SDS011;4686;44.496;11.324;2023-05-17T08:53:53;7.17;;;6.57;;
9294;SDS011;4686;44.496;11.324;2023-05-17T08:56:20;7.90;;;7.30;;
9294;SDS011;4686;44.496;11.324;2023-05-17T08:58:50;8.13;;;7.40;;
9294;SDS011;4686;44.496;11.324;2023-05-17T09:01:19;9.30;;;7.60;;
9294;SDS011;4686;44.496;11.324;2023-05-17T09:03:46;7.40;;;6.80;;
9294;SDS011;4686;44.496;11.324;2023-05-17T09:06:14;7.20;;;6.60;;
9294;SDS011;4686;44.496;11.324;2023-05-17T09:08:43;7.83;;;6.17;;
9294;SDS011;4686;44.496;11.324;2023-05-17T09:11:12;9.00;;;7.10;;
9294;SDS011;4686;44.496;11.324;2023-05-17T09:13:50;7.30;;;6.63;;
9294;SDS011;4686;44.496;11.324;2023-05-17T09:16:18;7.90;;;7.20;;
9294;SDS011;4686;44.496;11.324;2023-05-17T09:18:52;8.37;;;7.30;;
9294;SDS011;4686;44.496;11.324;2023-05-17T09:21:19;8.50;;;7.60;;
9294;SDS011;4686;44.496;11.324;2023-05-17T09:23:46;8.17;;;7.33;;
9294;SDS011;4686;44.496;11.324;2023-05-17T09:26:15;9.20;;;8.30;;
9294;SDS011;4686;44.496;11.324;2023-05-17T09:28:43;7.90;;;7.10;;
9294;SDS011;4686;44.496;11.324;2023-05-17T09:31:13;8.23;;;7.30;;
9294;SDS011;4686;44.496;11.324;2023-05-17T09:33:43;8.27;;;7.50;;
9294;SDS011;4686;44.496;11.324;2023-05-17T09:36:14;7.73;;;7.03;;
9294;SDS011;4686;44.496;11.324;2023-05-17T09:38:43;8.90;;;7.90;;
9294;SDS011;4686;44.496;11.324;2023-05-17T09:41:10;12.07;;;7.80;;
9294;SDS011;4686;44.496;11.324;2023-05-17T09:43:39;8.80;;;7.93;;
9294;SDS011;4686;44.496;11.324;2023-05-17T09:46:06;8.27;;;7.47;;
9294;SDS011;4686;44.496;11.324;2023-05-17T09:48:36;8.20;;;7.50;;
9294;SDS011;4686;44.496;11.324;2023-05-17T09:51:04;8.53;;;7.73;;
9294;SDS011;4686;44.496;11.324;2023-05-17T09:53:32;9.20;;;8.40;;
9294;SDS011;4686;44.496;11.324;2023-05-17T09:56:04;9.53;;;8.63;;
9294;SDS011;4686;44.496;11.324;2023-05-17T09:58:31;10.03;;;7.57;;
9294;SDS011;4686;44.496;11.324;2023-05-17T10:01:01;10.23;;;8.23;;
9294;SDS011;4686;44.496;11.324;2023-05-17T10:03:29;9.87;;;8.73;;
9294;SDS011;4686;44.496;11.324;2023-05-17T10:05:57;9.33;;;8.53;;
9294;SDS011;4686;44.496;11.324;2023-05-17T10:08:24;10.33;;;9.33;;
9294;SDS011;4686;44.496;11.324;2023-05-17T10:10:53;9.20;;;8.27;;
9294;SDS011;4686;44.496;11.324;2023-05-17T10:13:21;10.20;;;9.20;;
9294;SDS011;4686;44.496;11.324;2023-05-17T10:15:50;11.23;;;10.23;;
9294;SDS011;4686;44.496;11.324;2023-05-17T10:18:20;10.93;;;9.47;;
9294;SDS011;4686;44.496;11.324;2023-05-17T10:20:53;10.87;;;9.80;;
9294;SDS011;4686;44.496;11.324;2023-05-17T10:23:27;17.23;;;15.47;;
9294;SDS011;4686;44.496;11.324;2023-05-17T10:25:57;15.17;;;13.60;;
9294;SDS011;4686;44.496;11.324;2023-05-17T10:28:25;10.23;;;9.27;;
9294;SDS011;4686;44.496;11.324;2023-05-17T10:30:53;11.07;;;10.07;;
9294;SDS011;4686;44.496;11.324;2023-05-17T10:33:22;8.70;;;7.90;;
9294;SDS011;4686;44.496;11.324;2023-05-17T10:35:50;9.33;;;8.60;;
9294;SDS011;4686;44.496;11.324;2023-05-17T10:38:18;8.70;;;7.90;;
9294;SDS011;4686;44.496;11.324;2023-05-17T10:40:48;7.27;;;6.73;;
9294;SDS011;4686;44.496;11.324;2023-05-17T10:43:16;10.70;;;9.70;;
9294;SDS011;4686;44.496;11.324;2023-05-17T10:45:44;10.63;;;8.53;;
9294;SDS011;4686;44.496;11.324;2023-05-17T10:48:13;4.67;;;4.37;;
9294;SDS011;4686;44.496;11.324;2023-05-17T10:50:44;4.80;;;4.50;;
9294;SDS011;4686;44.496;11.324;2023-05-17T10:53:12;5.33;;;4.93;;
9294;SDS011;4686;44.496;11.324;2023-05-17T10:55:40;3.87;;;3.67;;
9294;SDS011;4686;44.496;11.324;2023-05-17T10:58:12;20.77;;;17.30;;
9294;SDS011;4686;44.496;11.324;2023-05-17T11:00:42;6.60;;;5.70;;
9294;SDS011;4686;44.496;11.324;2023-05-17T11:03:15;3.90;;;3.60;;
9294;SDS011;4686;44.496;11.324;2023-05-17T11:08:32;2.80;;;2.70;;
9294;SDS011;4686;44.496;11.324;2023-05-17T11:11:09;7.60;;;6.90;;
9294;SDS011;4686;44.496;11.324;2023-05-17T11:13:43;4.73;;;3.37;;
9294;SDS011;4686;44.496;11.324;2023-05-17T11:16:14;7.90;;;6.67;;
9294;SDS011;4686;44.496;11.324;2023-05-17T11:18:45;7.90;;;7.10;;
9294;SDS011;4686;44.496;11.324;2023-05-17T11:21:14;3.23;;;3.03;;
9294;SDS011;4686;44.496;11.324;2023-05-17T11:23:42;4.93;;;3.90;;
9294;SDS011;4686;44.496;11.324;2023-05-17T11:26:16;4.67;;;4.37;;
9294;SDS011;4686;44.496;11.324;2023-05-17T11:28:47;5.73;;;5.23;;
9294;SDS011;4686;44.496;11.324;2023-05-17T11:31:15;3.63;;;3.30;;
9294;SDS011;4686;44.496;11.324;2023-05-17T11:33:43;4.30;;;3.70;;
9294;SDS011;4686;44.496;11.324;2023-05-17T11:36:16;3.53;;;3.23;;
9294;SDS011;4686;44.496;11.324;2023-05-17T11:38:47;3.40;;;3.13;;
9294;SDS011;4686;44.496;11.324;2023-05-17T11:41:15;4.27;;;3.67;;
9294;SDS011;4686;44.496;11.324;2023-05-17T11:43:44;4.63;;;4.23;;
9294;SDS011;4686;44.496;11.324;2023-05-17T11:46:16;3.40;;;3.20;;
9294;SDS011;4686;44.496;11.324;2023-05-17T11:48:45;3.27;;;3.07;;
9294;SDS011;4686;44.496;11.324;2023-05-17T11:51:17;4.47;;;4.17;;
9294;SDS011;4686;44.496;11.324;2023-05-17T11:53:45;8.93;;;8.00;;
9294;SDS011;4686;44.496;11.324;2023-05-17T11:56:13;12.20;;;10.07;;
9294;SDS011;4686;44.496;11.324;2023-05-17T11:58:41;9.63;;;7.83;;
9294;SDS011;4686;44.496;11.324;2023-05-17T12:01:09;4.67;;;4.27;;
9294;SDS011;4686;44.496;11.324;2023-05-17T12:03:36;8.53;;;7.37;;
9294;SDS011;4686;44.496;11.324;2023-05-17T12:06:04;5.03;;;4.53;;
9294;SDS011;4686;44.496;11.324;2023-05-17T12:08:35;3.27;;;3.07;;
9294;SDS011;4686;44.496;11.324;2023-05-17T12:11:03;4.60;;;4.03;;
9294;SDS011;4686;44.496;11.324;2023-05-17T12:13:31;3.80;;;2.87;;
9294;SDS011;4686;44.496;11.324;2023-05-17T12:15:59;3.40;;;3.10;;
9294;SDS011;4686;44.496;11.324;2023-05-17T12:18:34;8.50;;;6.17;;
9294;SDS011;4686;44.496;11.324;2023-05-17T12:21:02;6.80;;;5.73;;
9294;SDS011;4686;44.496;11.324;2023-05-17T12:23:29;3.40;;;3.20;;
9294;SDS011;4686;44.496;11.324;2023-05-17T12:26:02;5.03;;;4.53;;
9294;SDS011;4686;44.496;11.324;2023-05-17T12:28:29;3.70;;;3.40;;
9294;SDS011;4686;44.496;11.324;2023-05-17T12:30:57;2.53;;;2.40;;
9294;SDS011;4686;44.496;11.324;2023-05-17T12:33:27;2.80;;;2.60;;
9294;SDS011;4686;44.496;11.324;2023-05-17T12:35:55;3.00;;;2.80;;
9294;SDS011;4686;44.496;11.324;2023-05-17T12:38:23;4.23;;;3.90;;
9294;SDS011;4686;44.496;11.324;2023-05-17T12:40:52;3.90;;;3.10;;
9294;SDS011;4686;44.496;11.324;2023-05-17T12:43:24;4.53;;;3.23;;
9294;SDS011;4686;44.496;11.324;2023-05-17T12:45:55;4.23;;;3.13;;
9294;SDS011;4686;44.496;11.324;2023-05-17T12:48:27;2.87;;;2.67;;
9294;SDS011;4686;44.496;11.324;2023-05-17T12:50:56;3.33;;;2.80;;
9294;SDS011;4686;44.496;11.324;2023-05-17T12:53:23;12.07;;;9.83;;
9294;SDS011;4686;44.496;11.324;2023-05-17T12:55:55;19.80;;;16.70;;
9294;SDS011;4686;44.496;11.324;2023-05-17T12:58:27;19.57;;;13.87;;
9294;SDS011;4686;44.496;11.324;2023-05-17T13:00:55;10.13;;;8.90;;
9294;SDS011;4686;44.496;11.324;2023-05-17T13:03:23;10.17;;;7.43;;
9294;SDS011;4686;44.496;11.324;2023-05-17T13:05:56;18.90;;;16.27;;
9294;SDS011;4686;44.496;11.324;2023-05-17T13:08:24;25.90;;;19.23;;
9294;SDS011;4686;44.496;11.324;2023-05-17T13:10:51;10.07;;;8.37;;
9294;SDS011;4686;44.496;11.324;2023-05-17T13:13:18;13.63;;;12.10;;
9294;SDS011;4686;44.496;11.324;2023-05-17T13:15:48;4.93;;;4.63;;
9294;SDS011;4686;44.496;11.324;2023-05-17T13:18:17;3.77;;;3.40;;
9294;SDS011;4686;44.496;11.324;2023-05-17T13:20:46;29.80;;;22.70;;
9294;SDS011;4686;44.496;11.324;2023-05-17T13:23:20;5.00;;;3.30;;
9294;SDS011;4686;44.496;11.324;2023-05-17T13:25:48;3.13;;;2.97;;
9294;SDS011;4686;44.496;11.324;2023-05-17T13:28:15;19.60;;;16.30;;
9294;SDS011;4686;44.496;11.324;2023-05-17T13:30:42;3.20;;;3.03;;
9294;SDS011;4686;44.496;11.324;2023-05-17T13:33:19;3.50;;;3.20;;
9294;SDS011;4686;44.496;11.324;2023-05-17T13:35:47;5.73;;;5.20;;
9294;SDS011;4686;44.496;11.324;2023-05-17T13:38:15;3.10;;;2.90;;
9294;SDS011;4686;44.496;11.324;2023-05-17T13:40:42;3.67;;;2.50;;
9294;SDS011;4686;44.496;11.324;2023-05-17T13:43:10;3.20;;;2.90;;
9294;SDS011;4686;44.496;11.324;2023-05-17T13:45:41;2.37;;;2.20;;
9294;SDS011;4686;44.496;11.324;2023-05-17T13:48:16;3.53;;;3.23;;
9294;SDS011;4686;44.496;11.324;2023-05-17T13:50:47;3.10;;;2.40;;
9294;SDS011;4686;44.496;11.324;2023-05-17T13:53:17;3.47;;;3.17;;
9294;SDS011;4686;44.496;11.324;2023-05-17T13:55:44;3.00;;;2.60;;
9294;SDS011;4686;44.496;11.324;2023-05-17T13:58:14;2.87;;;2.77;;
9294;SDS011;4686;44.496;11.324;2023-05-17T14:00:45;4.27;;;3.33;;
9294;SDS011;4686;44.496;11.324;2023-05-17T14:03:12;3.13;;;2.93;;
9294;SDS011;4686;44.496;11.324;2023-05-17T14:05:39;4.90;;;3.03;;
9294;SDS011;4686;44.496;11.324;2023-05-17T14:08:09;6.20;;;2.73;;
9294;SDS011;4686;44.496;11.324;2023-05-17T14:10:37;2.17;;;2.07;;
9294;SDS011;4686;44.496;11.324;2023-05-17T14:13:04;3.40;;;3.10;;
9294;SDS011;4686;44.496;11.324;2023-05-17T14:15:32;3.03;;;2.83;;
9294;SDS011;4686;44.496;11.324;2023-05-17T14:18:02;3.27;;;2.97;;
9294;SDS011;4686;44.496;11.324;2023-05-17T14:20:29;5.73;;;3.10;;
9294;SDS011;4686;44.496;11.324;2023-05-17T14:22:57;4.57;;;4.17;;
9294;SDS011;4686;44.496;11.324;2023-05-17T14:25:26;4.60;;;2.73;;
9294;SDS011;4686;44.496;11.324;2023-05-17T14:27:53;3.67;;;3.37;;
9294;SDS011;4686;44.496;11.324;2023-05-17T14:30:20;2.80;;;2.60;;
9294;SDS011;4686;44.496;11.324;2023-05-17T14:32:48;4.60;;;3.13;;
9294;SDS011;4686;44.496;11.324;2023-05-17T14:35:15;3.10;;;3.00;;
9294;SDS011;4686;44.496;11.324;2023-05-17T14:37:43;3.03;;;2.83;;
9294;SDS011;4686;44.496;11.324;2023-05-17T14:40:10;5.33;;;3.00;;
9294;SDS011;4686;44.496;11.324;2023-05-17T14:42:39;4.37;;;3.70;;
9294;SDS011;4686;44.496;11.324;2023-05-17T14:45:07;3.53;;;3.23;;
9294;SDS011;4686;44.496;11.324;2023-05-17T14:47:36;2.60;;;2.50;;
9294;SDS011;4686;44.496;11.324;2023-05-17T14:50:04;4.33;;;2.70;;
9294;SDS011;4686;44.496;11.324;2023-05-17T14:52:34;3.23;;;3.03;;
9294;SDS011;4686;44.496;11.324;2023-05-17T14:55:02;5.87;;;5.10;;
9294;SDS011;4686;44.496;11.324;2023-05-17T14:57:30;4.63;;;4.33;;
9294;SDS011;4686;44.496;11.324;2023-05-17T15:00:00;8.50;;;5.13;;
9294;SDS011;4686;44.496;11.324;2023-05-17T15:02:34;3.20;;;3.00;;
9294;SDS011;4686;44.496;11.324;2023-05-17T15:05:02;6.10;;;5.33;;